sensor_id;sensor_type;location;lat;lon;timestamp;pressure;altitude;pressure_sealevel;temperature;humidity
46408;BME280;32110;45.724;21.276;2022-09-09T00:03:57;100155.66;;;19.44;nan
46408;BME280;32110;45.724;21.276;2022-09-09T00:06:32;100182.59;;;19.28;nan
46408;BME280;32110;45.724;21.276;2022-09-09T00:09:34;100183.63;;;19.32;nan
46408;BME280;32110;45.724;21.276;2022-09-09T00:11:56;100152.63;;;19.31;nan
46408;BME280;32110;45.724;21.276;2022-09-09T00:14:34;100221.91;;;19.42;nan
46408;BME280;32110;45.724;21.276;2022-09-09T00:17:08;100160.72;;;19.45;nan
46408;BME280;32110;45.724;21.276;2022-09-09T00:20:14;100175.00;;;19.54;nan
46408;BME280;32110;45.724;21.276;2022-09-09T00:25:15;100161.88;;;19.58;nan
46408;BME280;32110;45.724;21.276;2022-09-09T00:27:47;100135.75;;;19.36;nan
46408;BME280;32110;45.724;21.276;2022-09-09T00:30:23;100197.31;;;19.64;nan
46408;BME280;32110;45.724;21.276;2022-09-09T00:32:53;100192.25;;;19.62;nan
46408;BME280;32110;45.724;21.276;2022-09-09T00:35:34;100196.03;;;19.61;nan
46408;BME280;32110;45.724;21.276;2022-09-09T00:38:16;100211.81;;;19.58;nan
46408;BME280;32110;45.724;21.276;2022-09-09T00:41:11;100189.59;;;19.62;nan
46408;BME280;32110;45.724;21.276;2022-09-09T01:12:23;100231.22;;;19.63;nan
46408;BME280;32110;45.724;21.276;2022-09-09T01:28:11;100215.19;;;19.68;nan
46408;BME280;32110;45.724;21.276;2022-09-09T01:35:57;100209.53;;;19.70;nan
46408;BME280;32110;45.724;21.276;2022-09-09T01:40:51;100210.88;;;19.67;nan
46408;BME280;32110;45.724;21.276;2022-09-09T01:45:44;100225.78;;;19.73;nan
46408;BME280;32110;45.724;21.276;2022-09-09T01:48:11;100211.34;;;19.74;nan
46408;BME280;32110;45.724;21.276;2022-09-09T01:53:02;100194.22;;;19.75;nan
46408;BME280;32110;45.724;21.276;2022-09-09T01:55:32;100205.22;;;19.74;nan
46408;BME280;32110;45.724;21.276;2022-09-09T02:00:28;100193.81;;;19.68;nan
46408;BME280;32110;45.724;21.276;2022-09-09T02:05:38;100199.34;;;19.72;nan
46408;BME280;32110;45.724;21.276;2022-09-09T02:08:10;100183.84;;;19.74;nan
46408;BME280;32110;45.724;21.276;2022-09-09T02:10:59;100243.41;;;19.74;nan
46408;BME280;32110;45.724;21.276;2022-09-09T02:13:28;100180.88;;;19.75;nan
46408;BME280;32110;45.724;21.276;2022-09-09T02:16:15;100198.75;;;19.75;nan
46408;BME280;32110;45.724;21.276;2022-09-09T02:21:12;100193.72;;;19.73;nan
46408;BME280;32110;45.724;21.276;2022-09-09T02:26:07;100190.56;;;19.71;nan
46408;BME280;32110;45.724;21.276;2022-09-09T02:28:34;100195.88;;;19.71;nan
46408;BME280;32110;45.724;21.276;2022-09-09T02:33:30;100185.50;;;19.70;nan
46408;BME280;32110;45.724;21.276;2022-09-09T02:35:59;100186.03;;;19.67;nan
46408;BME280;32110;45.724;21.276;2022-09-09T02:38:29;100177.00;;;19.63;nan
46408;BME280;32110;45.724;21.276;2022-09-09T02:40:57;100180.47;;;19.63;nan
46408;BME280;32110;45.724;21.276;2022-09-09T02:43:23;100184.03;;;19.59;nan
46408;BME280;32110;45.724;21.276;2022-09-09T02:48:45;100166.13;;;19.59;nan
46408;BME280;32110;45.724;21.276;2022-09-09T02:51:27;100191.75;;;19.60;nan
46408;BME280;32110;45.724;21.276;2022-09-09T02:56:53;100194.41;;;19.60;nan
46408;BME280;32110;45.724;21.276;2022-09-09T02:59:22;100192.84;;;19.59;nan
46408;BME280;32110;45.724;21.276;2022-09-09T03:01:47;100200.56;;;19.61;nan
46408;BME280;32110;45.724;21.276;2022-09-09T03:04:13;100163.53;;;19.54;nan
46408;BME280;32110;45.724;21.276;2022-09-09T03:06:39;100199.06;;;19.54;nan
46408;BME280;32110;45.724;21.276;2022-09-09T03:09:04;100144.03;;;19.53;nan
46408;BME280;32110;45.724;21.276;2022-09-09T03:11:30;100171.84;;;19.52;nan
46408;BME280;32110;45.724;21.276;2022-09-09T03:13:56;100201.50;;;19.51;nan
46408;BME280;32110;45.724;21.276;2022-09-09T03:16:23;100184.97;;;19.49;nan
46408;BME280;32110;45.724;21.276;2022-09-09T03:18:48;100183.91;;;19.50;nan
46408;BME280;32110;45.724;21.276;2022-09-09T03:21:14;100174.06;;;19.45;nan
46408;BME280;32110;45.724;21.276;2022-09-09T03:23:40;100194.34;;;19.46;nan
46408;BME280;32110;45.724;21.276;2022-09-09T03:26:05;100180.72;;;19.48;nan
46408;BME280;32110;45.724;21.276;2022-09-09T03:28:31;100173.81;;;19.47;nan
46408;BME280;32110;45.724;21.276;2022-09-09T03:31:03;100212.31;;;19.41;nan
46408;BME280;32110;45.724;21.276;2022-09-09T03:33:29;100240.06;;;19.45;nan
46408;BME280;32110;45.724;21.276;2022-09-09T03:35:55;100197.53;;;19.48;nan
46408;BME280;32110;45.724;21.276;2022-09-09T03:38:24;100176.94;;;19.49;nan
46408;BME280;32110;45.724;21.276;2022-09-09T03:40:55;100191.63;;;19.51;nan
46408;BME280;32110;45.724;21.276;2022-09-09T03:43:23;100240.50;;;19.52;nan
46408;BME280;32110;45.724;21.276;2022-09-09T03:45:49;100183.63;;;19.51;nan
46408;BME280;32110;45.724;21.276;2022-09-09T03:48:15;100223.44;;;19.48;nan
46408;BME280;32110;45.724;21.276;2022-09-09T03:50:47;100177.63;;;19.41;nan
46408;BME280;32110;45.724;21.276;2022-09-09T03:53:15;100191.91;;;19.31;nan
46408;BME280;32110;45.724;21.276;2022-09-09T03:55:52;100230.94;;;19.27;nan
46408;BME280;32110;45.724;21.276;2022-09-09T03:58:20;100148.09;;;19.32;nan
46408;BME280;32110;45.724;21.276;2022-09-09T04:00:57;100191.81;;;19.55;nan
46408;BME280;32110;45.724;21.276;2022-09-09T04:03:23;100159.94;;;19.45;nan
46408;BME280;32110;45.724;21.276;2022-09-09T04:05:53;100172.00;;;19.42;nan
46408;BME280;32110;45.724;21.276;2022-09-09T04:08:19;100198.19;;;19.40;nan
46408;BME280;32110;45.724;21.276;2022-09-09T04:13:12;100213.47;;;19.34;nan
46408;BME280;32110;45.724;21.276;2022-09-09T04:15:40;100260.88;;;19.24;nan
46408;BME280;32110;45.724;21.276;2022-09-09T04:18:06;100204.53;;;19.25;nan
46408;BME280;32110;45.724;21.276;2022-09-09T04:20:31;100209.28;;;19.28;nan
46408;BME280;32110;45.724;21.276;2022-09-09T04:22:57;100206.63;;;19.28;nan
46408;BME280;32110;45.724;21.276;2022-09-09T04:25:23;100219.47;;;19.26;nan
46408;BME280;32110;45.724;21.276;2022-09-09T04:27:56;100224.28;;;19.24;nan
46408;BME280;32110;45.724;21.276;2022-09-09T04:30:22;100203.00;;;19.19;nan
46408;BME280;32110;45.724;21.276;2022-09-09T04:32:48;100208.34;;;19.19;nan
46408;BME280;32110;45.724;21.276;2022-09-09T04:35:13;100201.69;;;19.17;nan
46408;BME280;32110;45.724;21.276;2022-09-09T04:37:39;100219.53;;;19.21;nan
46408;BME280;32110;45.724;21.276;2022-09-09T04:40:05;100232.59;;;19.23;nan
46408;BME280;32110;45.724;21.276;2022-09-09T04:42:35;100234.38;;;19.27;nan
46408;BME280;32110;45.724;21.276;2022-09-09T04:45:00;100243.22;;;19.28;nan
46408;BME280;32110;45.724;21.276;2022-09-09T04:47:26;100205.31;;;19.26;nan
46408;BME280;32110;45.724;21.276;2022-09-09T04:49:52;100245.56;;;19.29;nan
46408;BME280;32110;45.724;21.276;2022-09-09T04:52:19;100252.78;;;19.29;nan
46408;BME280;32110;45.724;21.276;2022-09-09T04:54:45;100238.16;;;19.26;nan
46408;BME280;32110;45.724;21.276;2022-09-09T04:57:11;100226.69;;;19.26;nan
46408;BME280;32110;45.724;21.276;2022-09-09T04:59:36;100228.06;;;19.23;nan
46408;BME280;32110;45.724;21.276;2022-09-09T05:02:02;100223.28;;;19.20;nan
46408;BME280;32110;45.724;21.276;2022-09-09T05:04:29;100220.38;;;19.17;nan
46408;BME280;32110;45.724;21.276;2022-09-09T05:06:55;100208.41;;;19.14;nan
46408;BME280;32110;45.724;21.276;2022-09-09T05:09:21;100269.28;;;19.12;nan
46408;BME280;32110;45.724;21.276;2022-09-09T05:11:46;100246.88;;;19.13;nan
46408;BME280;32110;45.724;21.276;2022-09-09T05:16:37;100200.69;;;19.12;nan
46408;BME280;32110;45.724;21.276;2022-09-09T05:21:28;100223.78;;;19.22;nan
46408;BME280;32110;45.724;21.276;2022-09-09T05:23:56;100212.53;;;19.25;nan
46408;BME280;32110;45.724;21.276;2022-09-09T05:26:22;100223.72;;;19.27;nan
46408;BME280;32110;45.724;21.276;2022-09-09T05:28:48;100232.53;;;19.28;nan
46408;BME280;32110;45.724;21.276;2022-09-09T05:31:14;100186.91;;;19.24;nan
46408;BME280;32110;45.724;21.276;2022-09-09T05:33:42;100241.06;;;19.30;nan
46408;BME280;32110;45.724;21.276;2022-09-09T05:36:13;100202.06;;;19.29;nan
46408;BME280;32110;45.724;21.276;2022-09-09T05:38:40;100233.03;;;19.30;nan
46408;BME280;32110;45.724;21.276;2022-09-09T05:41:06;100234.69;;;19.26;nan
46408;BME280;32110;45.724;21.276;2022-09-09T05:43:32;100241.84;;;19.30;nan
46408;BME280;32110;45.724;21.276;2022-09-09T05:46:09;100256.50;;;19.33;nan
46408;BME280;32110;45.724;21.276;2022-09-09T05:48:37;100255.41;;;19.34;nan
46408;BME280;32110;45.724;21.276;2022-09-09T05:51:04;100260.47;;;19.36;nan
46408;BME280;32110;45.724;21.276;2022-09-09T05:53:30;100263.19;;;19.30;nan
46408;BME280;32110;45.724;21.276;2022-09-09T05:56:11;100293.09;;;19.32;nan
46408;BME280;32110;45.724;21.276;2022-09-09T05:58:37;100249.91;;;19.25;nan
46408;BME280;32110;45.724;21.276;2022-09-09T06:01:12;100306.47;;;19.27;nan
46408;BME280;32110;45.724;21.276;2022-09-09T06:03:42;100260.09;;;19.23;nan
46408;BME280;32110;45.724;21.276;2022-09-09T06:06:10;100284.97;;;19.19;nan
46408;BME280;32110;45.724;21.276;2022-09-09T06:08:38;100282.88;;;19.16;nan
46408;BME280;32110;45.724;21.276;2022-09-09T06:13:34;100284.00;;;19.09;nan
46408;BME280;32110;45.724;21.276;2022-09-09T06:16:00;100281.59;;;19.08;nan
46408;BME280;32110;45.724;21.276;2022-09-09T06:18:28;100295.75;;;19.08;nan
46408;BME280;32110;45.724;21.276;2022-09-09T06:21:00;100311.78;;;19.08;nan
46408;BME280;32110;45.724;21.276;2022-09-09T06:23:32;100295.53;;;19.05;nan
46408;BME280;32110;45.724;21.276;2022-09-09T06:26:13;100283.47;;;19.07;nan
46408;BME280;32110;45.724;21.276;2022-09-09T06:28:39;100282.63;;;19.12;nan
46408;BME280;32110;45.724;21.276;2022-09-09T06:31:07;100261.56;;;19.10;nan
46408;BME280;32110;45.724;21.276;2022-09-09T06:33:38;100295.66;;;19.19;nan
46408;BME280;32110;45.724;21.276;2022-09-09T06:36:21;100277.16;;;19.22;nan
46408;BME280;32110;45.724;21.276;2022-09-09T06:38:47;100393.78;;;19.27;nan
46408;BME280;32110;45.724;21.276;2022-09-09T06:41:15;100264.84;;;19.26;nan
46408;BME280;32110;45.724;21.276;2022-09-09T06:43:41;100287.75;;;19.32;nan
46408;BME280;32110;45.724;21.276;2022-09-09T06:46:11;100293.03;;;19.38;nan
46408;BME280;32110;45.724;21.276;2022-09-09T06:48:38;100325.06;;;19.38;nan
46408;BME280;32110;45.724;21.276;2022-09-09T06:53:37;100280.63;;;19.47;nan
46408;BME280;32110;45.724;21.276;2022-09-09T06:58:39;100292.03;;;19.52;nan
46408;BME280;32110;45.724;21.276;2022-09-09T07:01:08;100330.00;;;19.49;nan
46408;BME280;32110;45.724;21.276;2022-09-09T07:03:34;100274.91;;;19.53;nan
46408;BME280;32110;45.724;21.276;2022-09-09T07:06:01;100310.13;;;19.55;nan
46408;BME280;32110;45.724;21.276;2022-09-09T07:08:26;100360.44;;;19.48;nan
46408;BME280;32110;45.724;21.276;2022-09-09T07:10:52;100289.63;;;19.51;nan
46408;BME280;32110;45.724;21.276;2022-09-09T07:13:24;100313.38;;;19.52;nan
46408;BME280;32110;45.724;21.276;2022-09-09T07:15:51;100320.03;;;19.55;nan
46408;BME280;32110;45.724;21.276;2022-09-09T07:23:08;100303.16;;;19.60;nan
46408;BME280;32110;45.724;21.276;2022-09-09T07:27:59;100322.06;;;19.63;nan
46408;BME280;32110;45.724;21.276;2022-09-09T07:32:51;100377.66;;;19.61;nan
46408;BME280;32110;45.724;21.276;2022-09-09T07:35:17;100386.41;;;19.67;nan
46408;BME280;32110;45.724;21.276;2022-09-09T07:37:43;100331.63;;;19.69;nan
46408;BME280;32110;45.724;21.276;2022-09-09T07:42:35;100334.53;;;19.73;nan
46408;BME280;32110;45.724;21.276;2022-09-09T07:45:01;100336.63;;;19.76;nan
46408;BME280;32110;45.724;21.276;2022-09-09T07:47:26;100361.25;;;19.73;nan
46408;BME280;32110;45.724;21.276;2022-09-09T07:49:52;100331.72;;;19.83;nan
46408;BME280;32110;45.724;21.276;2022-09-09T07:52:17;100410.53;;;19.86;nan
46408;BME280;32110;45.724;21.276;2022-09-09T07:57:10;100362.84;;;19.93;nan
46408;BME280;32110;45.724;21.276;2022-09-09T07:59:37;100340.75;;;19.87;nan
46408;BME280;32110;45.724;21.276;2022-09-09T08:02:02;100306.94;;;19.96;nan
46408;BME280;32110;45.724;21.276;2022-09-09T08:04:28;100395.66;;;19.98;nan
46408;BME280;32110;45.724;21.276;2022-09-09T08:06:56;100361.34;;;20.06;nan
46408;BME280;32110;45.724;21.276;2022-09-09T08:09:22;100373.63;;;20.07;nan
46408;BME280;32110;45.724;21.276;2022-09-09T08:11:50;100359.97;;;20.08;nan
46408;BME280;32110;45.724;21.276;2022-09-09T08:14:16;100370.88;;;20.12;nan
46408;BME280;32110;45.724;21.276;2022-09-09T08:16:45;100373.56;;;20.12;nan
46408;BME280;32110;45.724;21.276;2022-09-09T08:21:39;100356.34;;;20.18;nan
46408;BME280;32110;45.724;21.276;2022-09-09T08:24:05;100396.88;;;20.25;nan
46408;BME280;32110;45.724;21.276;2022-09-09T08:26:34;100392.84;;;20.28;nan
46408;BME280;32110;45.724;21.276;2022-09-09T08:29:01;100392.28;;;20.31;nan
46408;BME280;32110;45.724;21.276;2022-09-09T08:31:35;100440.69;;;20.29;nan
46408;BME280;32110;45.724;21.276;2022-09-09T08:34:03;100381.34;;;20.27;nan
46408;BME280;32110;45.724;21.276;2022-09-09T08:36:30;100393.78;;;20.37;nan
46408;BME280;32110;45.724;21.276;2022-09-09T08:38:58;100391.41;;;20.35;nan
46408;BME280;32110;45.724;21.276;2022-09-09T08:44:13;100392.41;;;20.39;nan
46408;BME280;32110;45.724;21.276;2022-09-09T08:49:42;100560.81;;;20.45;nan
46408;BME280;32110;45.724;21.276;2022-09-09T08:52:29;100385.81;;;20.51;nan
46408;BME280;32110;45.724;21.276;2022-09-09T08:55:02;100403.16;;;20.53;nan
46408;BME280;32110;45.724;21.276;2022-09-09T08:57:30;100459.88;;;20.55;nan
46408;BME280;32110;45.724;21.276;2022-09-09T08:59:57;100382.28;;;20.55;nan
46408;BME280;32110;45.724;21.276;2022-09-09T09:12:41;100403.16;;;20.72;nan
46408;BME280;32110;45.724;21.276;2022-09-09T09:15:16;100383.63;;;20.72;nan
46408;BME280;32110;45.724;21.276;2022-09-09T09:17:43;100398.41;;;20.69;nan
46408;BME280;32110;45.724;21.276;2022-09-09T09:20:13;100383.50;;;20.63;nan
46408;BME280;32110;45.724;21.276;2022-09-09T09:22:51;100373.44;;;20.74;nan
46408;BME280;32110;45.724;21.276;2022-09-09T09:25:20;100418.13;;;20.73;nan
46408;BME280;32110;45.724;21.276;2022-09-09T09:27:58;100454.59;;;20.69;nan
46408;BME280;32110;45.724;21.276;2022-09-09T09:30:35;100432.88;;;20.71;nan
46408;BME280;32110;45.724;21.276;2022-09-09T09:33:23;100406.25;;;20.79;nan
46408;BME280;32110;45.724;21.276;2022-09-09T09:35:51;100433.91;;;20.75;nan
46408;BME280;32110;45.724;21.276;2022-09-09T09:40:56;100339.63;;;20.78;nan
46408;BME280;32110;45.724;21.276;2022-09-09T09:43:33;100362.66;;;20.79;nan
46408;BME280;32110;45.724;21.276;2022-09-09T09:48:26;100382.88;;;20.85;nan
46408;BME280;32110;45.724;21.276;2022-09-09T09:50:55;100400.53;;;20.86;nan
46408;BME280;32110;45.724;21.276;2022-09-09T09:53:30;100394.59;;;20.89;nan
46408;BME280;32110;45.724;21.276;2022-09-09T09:56:03;100400.16;;;20.93;nan
46408;BME280;32110;45.724;21.276;2022-09-09T09:58:37;100396.66;;;20.92;nan
46408;BME280;32110;45.724;21.276;2022-09-09T10:03:55;100420.19;;;20.95;nan
46408;BME280;32110;45.724;21.276;2022-09-09T10:06:36;100419.88;;;20.97;nan
46408;BME280;32110;45.724;21.276;2022-09-09T10:17:36;100398.50;;;21.11;nan
46408;BME280;32110;45.724;21.276;2022-09-09T10:25:49;100404.66;;;21.25;nan
46408;BME280;32110;45.724;21.276;2022-09-09T10:28:33;100402.19;;;21.29;nan
46408;BME280;32110;45.724;21.276;2022-09-09T10:39:03;100383.97;;;21.44;nan
46408;BME280;32110;45.724;21.276;2022-09-09T10:41:56;100390.31;;;21.49;nan
46408;BME280;32110;45.724;21.276;2022-09-09T10:47:12;100368.28;;;21.65;nan
46408;BME280;32110;45.724;21.276;2022-09-09T10:55:13;100356.81;;;21.87;nan
46408;BME280;32110;45.724;21.276;2022-09-09T10:58:02;100355.31;;;21.95;nan
46408;BME280;32110;45.724;21.276;2022-09-09T11:03:24;100338.63;;;21.98;nan
46408;BME280;32110;45.724;21.276;2022-09-09T11:05:52;100350.47;;;22.20;nan
46408;BME280;32110;45.724;21.276;2022-09-09T11:08:22;100356.84;;;22.24;nan
46408;BME280;32110;45.724;21.276;2022-09-09T11:11:04;100359.47;;;22.38;nan
46408;BME280;32110;45.724;21.276;2022-09-09T11:13:53;100364.00;;;22.51;nan
46408;BME280;32110;45.724;21.276;2022-09-09T11:16:43;100358.06;;;22.63;nan
46408;BME280;32110;45.724;21.276;2022-09-09T11:19:20;100346.75;;;22.75;nan
46408;BME280;32110;45.724;21.276;2022-09-09T11:21:49;100325.16;;;22.80;nan
46408;BME280;32110;45.724;21.276;2022-09-09T11:26:51;100324.97;;;22.99;nan
46408;BME280;32110;45.724;21.276;2022-09-09T11:42:35;100334.94;;;23.73;nan
46408;BME280;32110;45.724;21.276;2022-09-09T11:45:23;100352.38;;;23.84;nan
46408;BME280;32110;45.724;21.276;2022-09-09T11:47:51;100351.28;;;23.85;nan
46408;BME280;32110;45.724;21.276;2022-09-09T11:52:45;100319.00;;;23.85;nan
46408;BME280;32110;45.724;21.276;2022-09-09T11:55:32;100326.13;;;23.98;nan
46408;BME280;32110;45.724;21.276;2022-09-09T12:00:36;100370.91;;;24.12;nan
46408;BME280;32110;45.724;21.276;2022-09-09T12:05:59;100342.59;;;24.23;nan
46408;BME280;32110;45.724;21.276;2022-09-09T12:08:28;100320.41;;;24.26;nan
46408;BME280;32110;45.724;21.276;2022-09-09T12:10:56;100272.44;;;24.28;nan
46408;BME280;32110;45.724;21.276;2022-09-09T12:13:24;100318.50;;;24.35;nan
46408;BME280;32110;45.724;21.276;2022-09-09T12:15:53;100321.97;;;24.45;nan
46408;BME280;32110;45.724;21.276;2022-09-09T12:24:11;100313.72;;;24.58;nan
46408;BME280;32110;45.724;21.276;2022-09-09T12:29:26;100350.44;;;24.63;nan
46408;BME280;32110;45.724;21.276;2022-09-09T12:32:10;100276.28;;;24.74;nan
46408;BME280;32110;45.724;21.276;2022-09-09T12:40:18;100279.19;;;24.99;nan
46408;BME280;32110;45.724;21.276;2022-09-09T12:42:44;100322.28;;;24.99;nan
46408;BME280;32110;45.724;21.276;2022-09-09T12:50:22;100341.72;;;25.22;nan
46408;BME280;32110;45.724;21.276;2022-09-09T12:52:50;100287.75;;;25.31;nan
46408;BME280;32110;45.724;21.276;2022-09-09T12:55:19;100262.31;;;25.40;nan
46408;BME280;32110;45.724;21.276;2022-09-09T12:57:48;100270.28;;;25.37;nan
46408;BME280;32110;45.724;21.276;2022-09-09T13:00:20;100277.91;;;25.56;nan
46408;BME280;32110;45.724;21.276;2022-09-09T13:03:17;100259.31;;;25.63;nan
46408;BME280;32110;45.724;21.276;2022-09-09T13:05:42;100282.38;;;25.73;nan
46408;BME280;32110;45.724;21.276;2022-09-09T13:08:11;100247.25;;;25.81;nan
46408;BME280;32110;45.724;21.276;2022-09-09T13:13:19;100234.38;;;25.87;nan
46408;BME280;32110;45.724;21.276;2022-09-09T13:16:06;100234.38;;;25.87;nan
46408;BME280;32110;45.724;21.276;2022-09-09T13:18:41;100226.09;;;25.83;nan
46408;BME280;32110;45.724;21.276;2022-09-09T13:21:07;100189.66;;;25.86;nan
46408;BME280;32110;45.724;21.276;2022-09-09T13:23:34;100219.69;;;25.97;nan
46408;BME280;32110;45.724;21.276;2022-09-09T13:28:47;100224.75;;;25.98;nan
46408;BME280;32110;45.724;21.276;2022-09-09T13:31:23;100226.88;;;26.05;nan
46408;BME280;32110;45.724;21.276;2022-09-09T13:33:49;100262.31;;;26.03;nan
46408;BME280;32110;45.724;21.276;2022-09-09T13:36:14;100232.88;;;26.10;nan
46408;BME280;32110;45.724;21.276;2022-09-09T13:39:01;100220.50;;;26.09;nan
46408;BME280;32110;45.724;21.276;2022-09-09T13:41:42;100214.78;;;26.11;nan
46408;BME280;32110;45.724;21.276;2022-09-09T13:44:25;100232.19;;;26.14;nan
46408;BME280;32110;45.724;21.276;2022-09-09T13:47:21;100244.69;;;26.18;nan
46408;BME280;32110;45.724;21.276;2022-09-09T13:49:48;100170.59;;;26.16;nan
46408;BME280;32110;45.724;21.276;2022-09-09T13:52:18;100235.34;;;26.16;nan
46408;BME280;32110;45.724;21.276;2022-09-09T13:54:48;100231.09;;;26.15;nan
46408;BME280;32110;45.724;21.276;2022-09-09T13:57:19;100274.91;;;26.12;nan
46408;BME280;32110;45.724;21.276;2022-09-09T13:59:46;100228.72;;;26.13;nan
46408;BME280;32110;45.724;21.276;2022-09-09T14:02:11;100291.47;;;26.10;nan
46408;BME280;32110;45.724;21.276;2022-09-09T14:04:37;100257.50;;;26.09;nan
46408;BME280;32110;45.724;21.276;2022-09-09T14:07:02;100223.31;;;26.13;nan
46408;BME280;32110;45.724;21.276;2022-09-09T14:09:28;100209.03;;;26.13;nan
46408;BME280;32110;45.724;21.276;2022-09-09T14:11:53;100237.81;;;26.08;nan
46408;BME280;32110;45.724;21.276;2022-09-09T14:14:20;100215.75;;;26.06;nan
46408;BME280;32110;45.724;21.276;2022-09-09T14:16:45;100208.13;;;26.08;nan
46408;BME280;32110;45.724;21.276;2022-09-09T14:19:11;100212.97;;;26.03;nan
46408;BME280;32110;45.724;21.276;2022-09-09T14:21:36;100195.06;;;25.98;nan
46408;BME280;32110;45.724;21.276;2022-09-09T14:24:02;100185.13;;;25.90;nan
46408;BME280;32110;45.724;21.276;2022-09-09T14:26:27;100197.09;;;26.01;nan
46408;BME280;32110;45.724;21.276;2022-09-09T14:28:56;100186.53;;;26.08;nan
46408;BME280;32110;45.724;21.276;2022-09-09T14:31:22;100206.44;;;26.16;nan
46408;BME280;32110;45.724;21.276;2022-09-09T14:33:47;100190.84;;;26.22;nan
46408;BME280;32110;45.724;21.276;2022-09-09T14:38:38;100246.47;;;26.14;nan
46408;BME280;32110;45.724;21.276;2022-09-09T14:41:18;100197.78;;;26.10;nan
46408;BME280;32110;45.724;21.276;2022-09-09T14:43:45;100220.19;;;26.23;nan
46408;BME280;32110;45.724;21.276;2022-09-09T14:46:13;100211.75;;;26.25;nan
46408;BME280;32110;45.724;21.276;2022-09-09T14:48:38;100210.16;;;26.24;nan
46408;BME280;32110;45.724;21.276;2022-09-09T14:51:10;100204.53;;;26.17;nan
46408;BME280;32110;45.724;21.276;2022-09-09T14:53:38;100192.19;;;26.16;nan
46408;BME280;32110;45.724;21.276;2022-09-09T14:56:08;100202.41;;;26.10;nan
46408;BME280;32110;45.724;21.276;2022-09-09T14:58:35;100195.78;;;26.07;nan
46408;BME280;32110;45.724;21.276;2022-09-09T15:01:08;100218.94;;;26.08;nan
46408;BME280;32110;45.724;21.276;2022-09-09T15:03:41;100204.72;;;25.99;nan
46408;BME280;32110;45.724;21.276;2022-09-09T15:06:08;100214.06;;;26.02;nan
46408;BME280;32110;45.724;21.276;2022-09-09T15:08:40;100214.84;;;26.02;nan
46408;BME280;32110;45.724;21.276;2022-09-09T15:11:06;100197.41;;;26.00;nan
46408;BME280;32110;45.724;21.276;2022-09-09T15:13:39;100191.69;;;26.01;nan
46408;BME280;32110;45.724;21.276;2022-09-09T15:16:10;100197.31;;;25.96;nan
46408;BME280;32110;45.724;21.276;2022-09-09T15:18:36;100181.72;;;25.81;nan
46408;BME280;32110;45.724;21.276;2022-09-09T15:21:05;100268.94;;;25.85;nan
46408;BME280;32110;45.724;21.276;2022-09-09T15:23:32;100195.94;;;25.90;nan
46408;BME280;32110;45.724;21.276;2022-09-09T15:25:58;100204.03;;;25.90;nan
46408;BME280;32110;45.724;21.276;2022-09-09T15:28:24;100192.59;;;25.93;nan
46408;BME280;32110;45.724;21.276;2022-09-09T15:30:51;100205.84;;;25.86;nan
46408;BME280;32110;45.724;21.276;2022-09-09T15:33:21;100191.31;;;25.91;nan
46408;BME280;32110;45.724;21.276;2022-09-09T15:35:46;100151.66;;;25.91;nan
46408;BME280;32110;45.724;21.276;2022-09-09T15:38:12;100196.59;;;25.87;nan
46408;BME280;32110;45.724;21.276;2022-09-09T15:40:41;100208.31;;;25.91;nan
46408;BME280;32110;45.724;21.276;2022-09-09T15:43:07;100201.00;;;25.92;nan
46408;BME280;32110;45.724;21.276;2022-09-09T15:45:35;100183.13;;;25.87;nan
46408;BME280;32110;45.724;21.276;2022-09-09T15:48:01;100195.34;;;25.84;nan
46408;BME280;32110;45.724;21.276;2022-09-09T15:50:27;100196.44;;;25.83;nan
46408;BME280;32110;45.724;21.276;2022-09-09T15:52:56;100196.78;;;25.82;nan
46408;BME280;32110;45.724;21.276;2022-09-09T15:55:21;100246.91;;;25.83;nan
46408;BME280;32110;45.724;21.276;2022-09-09T15:57:49;100194.09;;;25.82;nan
46408;BME280;32110;45.724;21.276;2022-09-09T16:00:15;100242.84;;;25.77;nan
46408;BME280;32110;45.724;21.276;2022-09-09T16:02:41;100192.38;;;25.77;nan
46408;BME280;32110;45.724;21.276;2022-09-09T16:05:08;100187.66;;;25.74;nan
46408;BME280;32110;45.724;21.276;2022-09-09T16:07:33;100197.06;;;25.68;nan
46408;BME280;32110;45.724;21.276;2022-09-09T16:10:00;100242.13;;;25.67;nan
46408;BME280;32110;45.724;21.276;2022-09-09T16:12:25;100241.53;;;25.62;nan
46408;BME280;32110;45.724;21.276;2022-09-09T16:14:52;100176.38;;;25.60;nan
46408;BME280;32110;45.724;21.276;2022-09-09T16:17:17;100156.69;;;25.59;nan
46408;BME280;32110;45.724;21.276;2022-09-09T16:19:44;100180.72;;;25.52;nan
46408;BME280;32110;45.724;21.276;2022-09-09T16:22:11;100187.28;;;25.42;nan
46408;BME280;32110;45.724;21.276;2022-09-09T16:24:36;100234.78;;;25.35;nan
46408;BME280;32110;45.724;21.276;2022-09-09T16:27:02;100233.66;;;25.36;nan
46408;BME280;32110;45.724;21.276;2022-09-09T16:29:27;100188.03;;;25.31;nan
46408;BME280;32110;45.724;21.276;2022-09-09T16:31:53;100174.81;;;25.17;nan
46408;BME280;32110;45.724;21.276;2022-09-09T16:34:20;100187.19;;;25.09;nan
46408;BME280;32110;45.724;21.276;2022-09-09T16:36:47;100194.19;;;25.10;nan
46408;BME280;32110;45.724;21.276;2022-09-09T16:39:15;100197.34;;;25.12;nan
46408;BME280;32110;45.724;21.276;2022-09-09T16:41:43;100182.53;;;24.97;nan
46408;BME280;32110;45.724;21.276;2022-09-09T16:44:10;100185.88;;;24.94;nan
46408;BME280;32110;45.724;21.276;2022-09-09T16:46:39;100189.22;;;24.91;nan
46408;BME280;32110;45.724;21.276;2022-09-09T16:49:09;100188.28;;;24.87;nan
46408;BME280;32110;45.724;21.276;2022-09-09T16:51:38;100181.53;;;24.81;nan